Loading...

Airport Melbourne International Airport(YMML)



ICAO YMML
Land Australia
Position -37° 40.398 S 144° 50.58 E
Höhe 434 ft über NN

Pisten Länge(ft) Länge(m) HDG
09 7500ft 24600m 94
27 7500ft 24600m 274
16 11998ft 39353m 171
34 11998ft 39353m 351

METAR

2022/05/21 06:00 YMML 210600Z 19007KT 9999 FEW030 14/08 Q1031

TAF(Forecast)

2022/05/21 06:22 TAF AMD YMML 210513Z 2106/2212 16008KT CAVOK FM210900 25005KT CAVOK FM211400 34005KT 9999 FEW010 FM212100 35005KT 9999 SCT010 FM220100 16005KT CAVOK PROB30 2117/2200 0500 FG BKN001